Terminal Aerodrome Forecast
Issued by NWS

Home | Current Version | Previous Version | Text Only | Print | Product List | Glossary On
Versions: 1 2 3 4 5 6 7 8 9 10 11 12
000
FTUS43 KGRR 252340
TAFJXN
TAF
KJXN 252340Z 2600/2624 14008KT P6SM BKN120
     FM261400 17012G20KT P6SM BKN070
     FM262100 17012KT P6SM VCSH OVC035=

USA.gov is the U.S. government's official web portal to all federal, state and local government web resources and services.